Time;durP1;ratioP1;P1;durP2;ratioP2;P2;SDS_P1;SDS_P2;PMS_P1;PMS_P2;Temp;Humidity;BMP_temperature;BMP_pressure;BME280_temperature;BME280_humidity;BME280_pressure;Samples;Min_cycle;Max_cycle;Signal;HPM_P1;HPM_P2
2022/12/13 00:00:54;;;;;;;37.47;17.95;;;;;;;-9.56;90.96;95434.69;2042403;29;20046;-56
2022/12/13 00:01:55;;;;;;;34.88;16.92;;;;;;;-9.61;90.38;95442.97;2042303;29;20054;-56
2022/12/13 00:02:56;;;;;;;36.95;18.35;;;;;;;-9.55;91.52;95431.34;2042166;29;20043;-56
2022/12/13 00:03:59;;;;;;;39.83;17.90;;;;;;;-9.58;90.78;95438.00;2041938;29;20048;-57
2022/12/13 00:05:00;;;;;;;47.90;19.13;;;;;;;-9.63;90.64;95435.38;2042441;29;20477;-57
2022/12/13 00:06:06;;;;;;;38.42;18.90;;;;;;;-9.63;90.51;95437.03;2041845;29;20359;-57
2022/12/13 00:07:07;;;;;;;36.80;18.02;;;;;;;-9.59;91.18;95433.78;2041751;29;20070;-56
2022/12/13 00:08:08;;;;;;;39.88;19.02;;;;;;;-9.57;90.74;95430.50;2042160;29;20096;-56
2022/12/13 00:09:11;;;;;;;36.72;18.17;;;;;;;-9.62;90.24;95438.72;2041553;29;20052;-56
2022/12/13 00:10:12;;;;;;;36.45;17.38;;;;;;;-9.58;90.50;95436.31;2041553;29;20051;-56
2022/12/13 00:11:14;;;;;;;36.80;17.27;;;;;;;-9.57;91.19;95427.13;2041384;29;20550;-56
2022/12/13 00:12:15;;;;;;;38.78;17.80;;;;;;;-9.60;91.27;95435.44;2042144;29;20056;-58
2022/12/13 00:13:16;;;;;;;33.58;15.90;;;;;;;-9.56;91.27;95434.69;2041731;29;20054;-58
2022/12/13 00:14:17;;;;;;;36.08;16.33;;;;;;;-9.51;91.06;95421.34;2042499;29;20400;-58
2022/12/13 00:15:18;;;;;;;38.25;17.58;;;;;;;-9.51;91.00;95427.25;2041782;29;20056;-58
2022/12/13 00:16:23;;;;;;;38.60;17.08;;;;;;;-9.57;91.12;95428.00;2041882;29;20039;-58
2022/12/13 00:17:24;;;;;;;36.03;16.58;;;;;;;-9.58;90.98;95426.28;2042241;29;20055;-58
2022/12/13 00:18:25;;;;;;;37.05;17.92;;;;;;;-9.57;91.14;95422.97;2042017;29;20514;-58
2022/12/13 00:19:26;;;;;;;36.05;17.50;;;;;;;-9.58;91.49;95426.28;2042065;29;20081;-58
2022/12/13 00:20:27;;;;;;;34.42;16.42;;;;;;;-9.61;90.30;95426.22;2041578;29;20506;-58
2022/12/13 00:21:30;;;;;;;36.15;17.45;;;;;;;-9.63;90.92;95420.28;2042173;29;20043;-58
2022/12/13 00:22:31;;;;;;;38.45;17.15;;;;;;;-9.59;90.55;95427.09;2041842;29;20514;-59
2022/12/13 00:23:32;;;;;;;36.40;17.52;;;;;;;-9.63;91.44;95427.00;2041836;29;20043;-59
2022/12/13 00:24:33;;;;;;;39.42;18.10;;;;;;;-9.62;90.35;95424.53;2041991;29;20074;-59
2022/12/13 00:25:34;;;;;;;33.80;16.23;;;;;;;-9.52;90.87;95424.69;2041887;29;20048;-59
2022/12/13 00:26:35;;;;;;;35.38;17.20;;;;;;;-9.59;90.41;95421.22;2042042;29;20052;-60
2022/12/13 00:27:36;;;;;;;33.95;17.38;;;;;;;-9.61;90.88;95430.41;2042428;29;20048;-59
2022/12/13 00:28:38;;;;;;;35.38;16.77;;;;;;;-9.62;91.10;95423.66;2041798;29;20059;-60
2022/12/13 00:29:39;;;;;;;40.13;18.30;;;;;;;-9.61;91.20;95421.19;2041803;29;20051;-60
2022/12/13 00:30:40;;;;;;;37.47;17.25;;;;;;;-9.64;90.07;95427.81;2041773;29;20361;-60
2022/12/13 00:31:41;;;;;;;36.10;17.30;;;;;;;-9.64;90.04;95426.16;2042339;29;20043;-58
2022/12/13 00:32:42;;;;;;;35.35;16.88;;;;;;;-9.56;90.25;95423.81;2041724;29;20051;-58
2022/12/13 00:33:43;;;;;;;35.20;16.60;;;;;;;-9.51;90.23;95419.72;2042259;29;20383;-58
2022/12/13 00:34:44;;;;;;;34.90;16.25;;;;;;;-9.54;90.40;95422.16;2042089;29;20039;-58
2022/12/13 00:35:46;;;;;;;32.35;15.90;;;;;;;-9.58;90.27;95421.25;2042006;29;20439;-58
2022/12/13 00:36:47;;;;;;;32.78;16.95;;;;;;;-9.68;90.27;95411.81;2042079;29;20047;-59
2022/12/13 00:37:48;;;;;;;38.20;17.30;;;;;;;-9.74;89.91;95398.28;2041928;29;20047;-59
2022/12/13 00:39:01;;;;;;;40.00;17.27;;;;;;;-9.74;90.20;95399.13;2042048;29;20047;-59
2022/12/13 00:40:02;;;;;;;34.70;16.35;;;;;;;-9.66;90.44;95410.19;2041408;29;20054;-58
2022/12/13 00:41:17;;;;;;;35.08;16.52;;;;;;;-9.71;90.20;95418.44;2041655;29;20047;-58
2022/12/13 00:42:18;;;;;;;35.17;16.80;;;;;;;-9.78;89.45;95418.31;2042094;29;20403;-56
2022/12/13 00:43:19;;;;;;;34.92;16.73;;;;;;;-9.84;89.65;95417.31;2042242;29;20035;-56
2022/12/13 00:44:20;;;;;;;37.90;16.58;;;;;;;-9.84;89.82;95417.31;2041195;29;20051;-56
2022/12/13 00:45:21;;;;;;;35.28;17.13;;;;;;;-9.81;90.63;95413.22;2042005;29;20047;-55
2022/12/13 00:46:22;;;;;;;33.97;16.67;;;;;;;-9.82;90.39;95410.69;2042074;29;20040;-56
2022/12/13 00:47:23;;;;;;;38.30;17.75;;;;;;;-9.81;91.00;95417.38;2041264;29;20377;-56
2022/12/13 00:48:24;;;;;;;36.28;16.95;;;;;;;-9.77;91.16;95412.47;2041460;29;20066;-56
2022/12/13 00:49:26;;;;;;;34.50;16.80;;;;;;;-9.83;90.19;95411.50;2041651;29;20052;-56
2022/12/13 00:50:27;;;;;;;34.88;16.10;;;;;;;-9.76;90.60;95418.34;2041832;29;20066;-56
2022/12/13 00:51:30;;;;;;;33.70;15.23;;;;;;;-9.83;90.36;95409.00;2041489;29;20059;-56
2022/12/13 00:52:33;;;;;;;31.45;16.60;;;;;;;-9.87;89.67;95417.25;2041827;29;20051;-57
2022/12/13 00:53:34;;;;;;;36.05;15.48;;;;;;;-9.89;89.58;95413.88;2041945;29;20056;-56
2022/12/13 00:54:35;;;;;;;34.95;16.42;;;;;;;-9.90;89.13;95413.03;2041131;29;20048;-56
2022/12/13 00:55:40;;;;;;;34.42;15.95;;;;;;;-9.77;90.37;95409.97;2041211;29;20051;-54
2022/12/13 00:56:41;;;;;;;32.90;15.00;;;;;;;-9.73;90.75;95415.88;2041940;29;20047;-57
2022/12/13 00:57:42;;;;;;;35.35;16.92;;;;;;;-9.84;89.67;95415.66;2041616;29;20062;-58
2022/12/13 00:58:43;;;;;;;30.70;15.00;;;;;;;-9.81;90.09;95410.72;2041350;29;20060;-58
2022/12/13 00:59:44;;;;;;;34.90;16.50;;;;;;;-9.72;90.45;95407.56;2041838;29;20044;-58
2022/12/13 01:00:45;;;;;;;34.42;15.88;;;;;;;-9.77;89.52;95414.13;2041996;29;20067;-58
2022/12/13 01:01:46;;;;;;;33.33;15.07;;;;;;;-9.76;89.39;95421.69;2041468;29;20078;-63
2022/12/13 01:02:47;;;;;;;30.25;14.95;;;;;;;-9.67;89.83;95408.50;2041226;29;20066;-63
2022/12/13 01:03:48;;;;;;;33.45;15.18;;;;;;;-9.71;90.20;95409.22;2041548;29;20056;-63
2022/12/13 01:04:50;;;;;;;38.40;15.88;;;;;;;-9.81;89.78;95387.22;2041872;29;20420;-63
2022/12/13 01:05:51;;;;;;;35.65;16.30;;;;;;;-9.57;90.04;95407.88;2041578;29;20052;-63
2022/12/13 01:06:53;;;;;;;34.13;15.95;;;;;;;-9.62;89.91;95404.41;2041871;29;20440;-56
2022/12/13 01:07:54;;;;;;;33.90;14.52;;;;;;;-9.67;89.15;95411.00;2041430;29;20064;-55
2022/12/13 01:08:56;;;;;;;32.25;15.35;;;;;;;-9.75;88.97;95407.50;2041487;29;20139;-55
2022/12/13 01:09:57;;;;;;;32.97;15.35;;;;;;;-9.79;88.19;95410.75;2041281;29;20039;-55
2022/12/13 01:10:58;;;;;;;31.55;15.43;;;;;;;-9.81;88.47;95403.19;2041813;29;20490;-55
2022/12/13 01:12:01;;;;;;;32.88;16.20;;;;;;;-9.85;89.01;95406.44;2041862;29;20027;-57
2022/12/13 01:13:02;;;;;;;29.58;14.25;;;;;;;-9.84;88.76;95408.13;2041218;29;20345;-56
2022/12/13 01:14:03;;;;;;;33.03;16.63;;;;;;;-9.75;89.95;95410.00;2041252;29;20036;-56
2022/12/13 01:15:05;;;;;;;32.72;15.63;;;;;;;-9.72;89.50;95402.53;2041084;29;20059;-56
2022/12/13 01:16:07;;;;;;;29.70;14.18;;;;;;;-9.81;89.59;95408.22;2041746;29;20055;-56
2022/12/13 01:17:09;;;;;;;27.33;14.27;;;;;;;-9.91;88.71;95403.78;2041297;29;20060;-56
2022/12/13 01:18:12;;;;;;;34.45;15.20;;;;;;;-9.94;88.36;95400.34;2041760;29;20377;-56
2022/12/13 01:19:14;;;;;;;33.47;15.70;;;;;;;-9.94;88.72;95400.34;2041729;29;20035;-56
2022/12/13 01:20:15;;;;;;;36.42;15.00;;;;;;;-9.92;88.87;95399.56;2041813;29;20039;-56
2022/12/13 01:21:17;;;;;;;30.35;15.57;;;;;;;-9.92;89.38;95406.25;2041322;29;20036;-56
2022/12/13 01:22:18;;;;;;;34.67;16.80;;;;;;;-9.92;88.51;95406.25;2041372;29;20059;-56
2022/12/13 01:23:19;;;;;;;33.28;15.82;;;;;;;-9.88;89.23;95405.53;2041952;29;20039;-57
2022/12/13 01:24:23;;;;;;;33.88;15.48;;;;;;;-9.88;89.45;95406.38;2041991;29;20051;-57
2022/12/13 01:25:24;;;;;;;32.22;14.63;;;;;;;-9.81;90.12;95407.34;2041217;29;20055;-57
2022/12/13 01:26:26;;;;;;;32.72;15.77;;;;;;;-9.88;89.10;95398.84;2041579;29;20059;-57
2022/12/13 01:27:27;;;;;;;29.33;14.80;;;;;;;-9.92;89.11;95409.63;2041445;29;20063;-57
2022/12/13 01:28:28;;;;;;;32.15;15.98;;;;;;;-9.96;88.45;95402.00;2041023;29;20484;-57
2022/12/13 01:29:29;;;;;;;33.30;15.50;;;;;;;-9.99;88.75;95400.28;2041892;29;20060;-56
2022/12/13 01:30:30;;;;;;;25.75;13.27;;;;;;;-10.05;88.39;95398.47;2041804;29;20055;-57
2022/12/13 01:31:31;;;;;;;31.67;15.35;;;;;;;-10.06;87.77;95396.75;2041632;29;20074;-57
2022/12/13 01:32:32;;;;;;;34.53;14.80;;;;;;;-10.08;87.46;95400.06;2041453;29;20051;-57
2022/12/13 01:33:34;;;;;;;28.75;15.02;;;;;;;-10.13;87.90;95389.94;2041392;29;20051;-57
2022/12/13 01:34:35;;;;;;;32.15;15.73;;;;;;;-10.02;89.08;95388.50;2041362;29;20047;-57
2022/12/13 01:35:36;;;;;;;31.00;15.05;;;;;;;-10.02;88.82;95388.50;2041378;29;20062;-57
2022/12/13 01:36:41;;;;;;;34.95;15.50;;;;;;;-10.11;88.54;95385.75;2041443;29;20055;-58
2022/12/13 01:37:42;;;;;;;29.67;14.60;;;;;;;-10.16;88.03;95382.28;2040943;29;20059;-59
2022/12/13 01:38:43;;;;;;;33.50;14.77;;;;;;;-10.29;87.52;95367.81;2041733;29;20055;-59
2022/12/13 01:39:44;;;;;;;33.83;15.15;;;;;;;-10.22;87.54;95385.53;2041365;29;20047;-59
2022/12/13 01:40:48;;;;;;;30.20;14.95;;;;;;;-10.20;88.17;95393.09;2041802;29;20050;-59
2022/12/13 01:41:51;;;;;;;37.15;15.23;;;;;;;-10.26;88.90;95387.94;2041844;29;20400;-57
2022/12/13 01:42:52;;;;;;;30.80;15.20;;;;;;;-10.27;88.29;95386.28;2041401;29;20055;-57
2022/12/13 01:44:01;;;;;;;33.90;15.60;;;;;;;-10.29;87.54;95381.22;2041708;29;20036;-57
2022/12/13 01:45:05;;;;;;;31.63;14.75;;;;;;;-10.45;87.43;95364.97;2041021;29;20121;-57
2022/12/13 01:46:07;;;;;;;31.77;15.02;;;;;;;-10.34;87.02;95377.75;2040888;29;20059;-57
2022/12/13 01:47:08;;;;;;;33.20;16.38;;;;;;;-10.35;88.06;95372.69;2041505;29;20058;-58
2022/12/13 01:48:12;;;;;;;31.45;15.13;;;;;;;-10.36;87.62;95371.84;2040297;29;20527;-57
2022/12/13 01:49:14;;;;;;;31.40;15.05;;;;;;;-10.36;88.95;95364.31;2033271;29;20048;-58
2022/12/13 01:50:21;;;;;;;26.25;13.80;;;;;;;-10.33;88.39;95363.53;2040722;29;20055;-58
2022/12/13 01:51:44;;;;;;;34.13;14.80;;;;;;;-10.24;89.59;95366.22;2040997;29;20047;-57
2022/12/13 01:52:46;;;;;;;35.95;16.88;;;;;;;-10.29;89.65;95351.09;2035744;29;20051;-57
2022/12/13 01:53:47;;;;;;;33.40;15.48;;;;;;;-10.27;89.23;95367.00;2041236;29;20059;-58
2022/12/13 01:54:49;;;;;;;39.47;16.13;;;;;;;-10.30;88.94;95363.59;2040939;29;20066;-58
2022/12/13 01:55:53;;;;;;;26.30;14.68;;;;;;;-10.34;89.16;95374.38;2032710;29;20052;-58
2022/12/13 01:56:54;;;;;;;32.13;15.05;;;;;;;-10.41;88.49;95362.53;2040382;29;20044;-58
2022/12/13 01:57:57;;;;;;;32.97;15.00;;;;;;;-10.43;88.14;95368.34;2041264;29;20031;-58
2022/12/13 01:58:58;;;;;;;32.63;15.40;;;;;;;-10.45;87.56;95359.94;2033059;29;20131;-58
2022/12/13 01:59:59;;;;;;;29.15;15.07;;;;;;;-10.40;88.95;95362.53;2040655;29;20050;-58
2022/12/13 02:01:00;;;;;;;30.65;15.65;;;;;;;-10.33;88.95;95351.00;2050427;29;20534;-58
2022/12/13 02:02:01;;;;;;;31.15;15.30;;;;;;;-10.30;89.43;95361.09;2042436;29;20076;-57
2022/12/13 02:03:02;;;;;;;39.63;16.15;;;;;;;-10.28;89.67;95359.47;2034519;29;20048;-57
2022/12/13 02:04:04;;;;;;;35.15;17.48;;;;;;;-10.29;89.26;95358.63;2041921;29;20094;-57
2022/12/13 02:05:20;;;;;;;31.88;15.52;;;;;;;-10.36;89.04;95361.81;2045839;29;20039;-57
2022/12/13 02:06:31;;;;;;;33.22;15.77;;;;;;;-10.43;88.96;95357.44;2042712;29;20047;-57
2022/12/13 02:07:32;;;;;;;32.38;15.38;;;;;;;-10.47;88.92;95361.56;2032216;29;20044;-57
2022/12/13 02:08:34;;;;;;;31.92;16.10;;;;;;;-10.40;88.37;95359.19;2027846;29;20040;-57
2022/12/13 02:09:35;;;;;;;35.35;15.77;;;;;;;-10.38;88.80;95362.59;2026768;29;20063;-57
2022/12/13 02:10:36;;;;;;;29.73;15.27;;;;;;;-10.39;88.70;95355.88;2026661;29;20534;-57
2022/12/13 02:11:39;;;;;;;31.30;14.93;;;;;;;-10.45;88.64;95347.41;2034811;29;20036;-57
2022/12/13 02:12:40;;;;;;;30.83;15.93;;;;;;;-10.44;89.17;95340.72;2035060;29;20424;-57
2022/12/13 02:13:41;;;;;;;30.17;15.13;;;;;;;-10.38;89.00;95350.88;2034320;29;20052;-57
2022/12/13 02:14:43;;;;;;;33.42;15.23;;;;;;;-10.32;89.82;95347.66;2042400;29;20051;-57
2022/12/13 02:15:57;;;;;;;32.80;15.95;;;;;;;-10.32;89.43;95351.00;2042931;29;20048;-57
2022/12/13 02:17:18;;;;;;;36.70;16.85;;;;;;;-10.26;90.12;95350.28;2042177;29;20044;-57
2022/12/13 02:18:22;;;;;;;35.05;15.13;;;;;;;-10.36;89.49;95346.75;2041790;29;20495;-57
2022/12/13 02:19:41;;;;;;;33.45;15.15;;;;;;;-10.44;88.51;95344.06;2043105;29;20050;-57
2022/12/13 02:21:04;;;;;;;30.52;15.52;;;;;;;-10.50;88.12;95343.94;2042772;29;20431;-57
2022/12/13 02:22:14;;;;;;;29.98;14.90;;;;;;;-10.52;88.57;95345.56;2042357;29;20035;-57
2022/12/13 02:23:20;;;;;;;30.25;14.20;;;;;;;-10.34;90.01;95339.22;2042323;29;20044;-57
2022/12/13 02:24:46;;;;;;;30.08;15.43;;;;;;;-10.34;90.05;95341.75;2042303;29;20503;-57
2022/12/13 02:26:10;;;;;;;31.70;15.38;;;;;;;-10.32;89.87;95342.63;2042704;29;20060;-57
2022/12/13 02:27:53;;;;;;;30.63;14.93;;;;;;;-10.32;90.02;95343.47;2041797;29;20039;-59
2022/12/13 02:29:00;;;;;;;34.80;16.45;;;;;;;-10.28;90.32;95345.25;2034984;29;20488;-58
2022/12/13 02:30:21;;;;;;;33.40;15.90;;;;;;;-10.39;89.48;95345.84;2042440;29;20051;-59
2022/12/13 02:31:28;;;;;;;35.00;15.93;;;;;;;-10.47;89.28;95340.66;2042247;29;20047;-59
2022/12/13 02:32:39;;;;;;;31.60;14.98;;;;;;;-10.41;89.72;95339.94;2041872;29;20044;-58
2022/12/13 02:33:46;;;;;;;32.28;16.35;;;;;;;-10.37;90.04;95332.50;2035898;29;20055;-58
2022/12/13 02:34:52;;;;;;;36.83;16.70;;;;;;;-10.38;90.20;95337.47;2042402;29;20039;-58
2022/12/13 02:36:14;;;;;;;34.90;16.15;;;;;;;-10.47;89.44;95331.44;2041754;29;20048;-59
2022/12/13 02:37:25;;;;;;;36.63;16.73;;;;;;;-10.31;90.28;95334.31;2029166;29;20059;-59
2022/12/13 02:38:32;;;;;;;34.70;15.90;;;;;;;-10.43;89.67;95314.78;2029520;29;20044;-58
2022/12/13 02:39:35;;;;;;;33.97;15.60;;;;;;;-10.31;89.81;95335.16;2027495;29;20457;-58
2022/12/13 02:40:57;;;;;;;31.85;15.55;;;;;;;-10.32;90.63;95325.06;2034727;29;20056;-59
2022/12/13 02:42:12;;;;;;;34.95;16.38;;;;;;;-10.40;89.27;95334.09;2039103;29;20055;-58
2022/12/13 02:43:24;;;;;;;30.75;15.80;;;;;;;-10.45;89.20;95334.84;2037194;29;20051;-59
2022/12/13 02:44:27;;;;;;;37.47;15.70;;;;;;;-10.45;88.98;95334.84;2035007;29;20060;-59
2022/12/13 02:45:40;;;;;;;33.55;16.15;;;;;;;-10.43;89.02;95335.69;2034826;29;20047;-59
2022/12/13 02:46:47;;;;;;;33.85;16.23;;;;;;;-10.43;88.36;95328.16;2035897;29;20060;-56
2022/12/13 02:47:48;;;;;;;33.00;17.33;;;;;;;-10.34;89.48;95329.19;2035331;29;20047;-56
2022/12/13 02:48:50;;;;;;;34.03;15.55;;;;;;;-10.40;88.95;95334.09;2026836;29;20413;-56
2022/12/13 02:49:53;;;;;;;35.60;16.75;;;;;;;-10.45;88.69;95323.94;2034089;29;20052;-56
2022/12/13 02:50:54;;;;;;;33.92;15.65;;;;;;;-10.45;88.57;95328.94;2041904;29;20048;-56
2022/12/13 02:51:55;;;;;;;33.80;17.95;;;;;;;-10.41;89.11;95317.34;2026543;29;20056;-56
2022/12/13 02:52:57;;;;;;;38.25;17.13;;;;;;;-10.35;89.66;95318.31;2034109;29;20051;-56
2022/12/13 02:53:58;;;;;;;36.67;17.80;;;;;;;-10.22;89.84;95314.38;2042422;29;20070;-56
2022/12/13 02:54:59;;;;;;;32.83;16.63;;;;;;;-10.24;90.43;95318.50;2041998;29;20047;-55
2022/12/13 02:56:00;;;;;;;31.90;16.52;;;;;;;-10.17;90.39;95317.84;2042515;29;20047;-56
2022/12/13 02:57:01;;;;;;;37.90;17.92;;;;;;;-10.14;90.48;95317.06;2042932;29;20054;-58
2022/12/13 02:58:02;;;;;;;34.40;17.77;;;;;;;-10.14;90.53;95315.38;2042787;29;20047;-58
2022/12/13 02:59:08;;;;;;;35.10;17.25;;;;;;;-10.20;90.06;95312.75;2042594;29;20399;-58
2022/12/13 03:00:16;;;;;;;33.30;16.77;;;;;;;-10.10;89.74;95311.25;2042048;29;20059;-58
2022/12/13 03:01:39;;;;;;;33.08;16.05;;;;;;;-10.11;90.24;95317.09;2035218;29;20056;-58
2022/12/13 03:02:59;;;;;;;31.90;16.30;;;;;;;-10.22;89.83;95309.34;2037115;29;20055;-55
2022/12/13 03:04:12;;;;;;;34.28;16.25;;;;;;;-10.30;89.05;95315.91;2043910;29;20051;-55
2022/12/13 03:07:20;;;;;;;35.88;16.80;;;;;;;-10.40;88.61;95308.97;2042290;29;20433;-56
2022/12/13 03:08:45;;;;;;;31.67;15.75;;;;;;;-10.46;88.70;95307.19;2041134;29;20066;-55
2022/12/13 03:10:18;;;;;;;35.58;17.08;;;;;;;-10.51;88.66;95309.59;2037331;29;20052;-55
2022/12/13 03:11:20;;;;;;;32.42;16.15;;;;;;;-10.57;88.59;95301.09;2038212;29;20055;-56
2022/12/13 03:14:01;;;;;;;33.55;16.17;;;;;;;-10.53;89.06;95307.84;2031042;29;20055;-56
2022/12/13 03:15:20;;;;;;;35.47;17.25;;;;;;;-10.53;89.37;95301.19;2037351;29;20504;-56
2022/12/13 03:16:39;;;;;;;39.40;17.05;;;;;;;-10.61;88.57;95302.69;2044451;29;20059;-56
2022/12/13 03:17:43;;;;;;;37.75;17.77;;;;;;;-10.54;89.65;95302.00;2036790;29;20032;-56
2022/12/13 03:18:44;;;;;;;34.38;16.75;;;;;;;-10.59;89.18;95307.72;2034968;29;20056;-56
2022/12/13 03:19:45;;;;;;;36.38;17.98;;;;;;;-10.62;88.90;95303.47;2026622;29;20043;-56
2022/12/13 03:20:55;;;;;;;38.65;18.38;;;;;;;-10.67;89.01;95310.06;2026174;29;20056;-56
2022/12/13 03:21:56;;;;;;;34.97;17.33;;;;;;;-10.71;88.23;95308.31;2027083;29;20059;-56
2022/12/13 03:22:57;;;;;;;35.38;16.75;;;;;;;-10.72;88.12;95306.59;2034002;29;20052;-57
2022/12/13 03:23:58;;;;;;;37.22;17.00;;;;;;;-10.72;88.22;95311.59;2042754;29;20043;-55
2022/12/13 03:24:59;;;;;;;36.13;17.80;;;;;;;-10.72;87.97;95304.09;2042799;29;20050;-56
2022/12/13 03:26:07;;;;;;;38.17;18.35;;;;;;;-10.73;87.84;95302.41;2042570;29;20051;-56
2022/12/13 03:27:09;;;;;;;37.67;17.52;;;;;;;-10.76;87.85;95304.84;2041694;29;20050;-56
2022/12/13 03:28:11;;;;;;;40.83;17.52;;;;;;;-10.74;87.79;95303.22;2041235;29;20059;-56
2022/12/13 03:29:12;;;;;;;38.03;18.52;;;;;;;-10.75;87.86;95304.00;2041922;29;20043;-57
2022/12/13 03:30:13;;;;;;;38.28;17.95;;;;;;;-10.72;88.79;95299.06;2042431;29;20153;-56
2022/12/13 03:31:14;;;;;;;36.25;17.30;;;;;;;-10.60;89.51;95298.50;2042814;29;20054;-56
2022/12/13 03:32:16;;;;;;;35.65;18.00;;;;;;;-10.32;90.36;95303.31;2042747;29;20050;-55
2022/12/13 03:33:17;;;;;;;39.53;18.17;;;;;;;-10.34;89.96;95302.44;2042607;29;20373;-55
2022/12/13 03:34:18;;;;;;;35.67;17.42;;;;;;;-10.36;90.00;95301.56;2042599;29;20043;-55
2022/12/13 03:35:19;;;;;;;36.15;17.85;;;;;;;-10.29;90.09;95298.38;2042411;29;20052;-55
2022/12/13 03:36:20;;;;;;;36.35;17.60;;;;;;;-10.36;90.37;95301.56;2042427;29;20047;-55
2022/12/13 03:37:21;;;;;;;37.28;18.48;;;;;;;-10.43;89.82;95303.06;2041988;29;20134;-56
2022/12/13 03:38:22;;;;;;;40.63;18.95;;;;;;;-10.30;90.26;95306.69;2033706;29;20048;-56
2022/12/13 03:39:23;;;;;;;36.70;17.90;;;;;;;-10.26;90.01;95302.59;2041306;29;20051;-56
2022/12/13 03:40:25;;;;;;;42.40;18.83;;;;;;;-10.18;90.23;95303.59;2042658;29;20054;-56
2022/12/13 03:41:30;;;;;;;43.00;19.25;;;;;;;-10.22;90.08;95307.69;2041503;29;20062;-53
2022/12/13 03:42:31;;;;;;;39.90;17.95;;;;;;;-10.32;89.45;95308.31;2034270;29;20052;-56
2022/12/13 03:43:32;;;;;;;41.38;18.25;;;;;;;-10.39;89.44;95300.66;2041277;29;20070;-56
2022/12/13 03:44:34;;;;;;;38.55;19.20;;;;;;;-10.25;90.41;95309.28;2041451;29;20062;-56
2022/12/13 03:45:35;;;;;;;37.67;18.98;;;;;;;-10.33;90.03;95293.25;2041949;29;20373;-56
2022/12/13 03:46:37;;;;;;;39.17;18.52;;;;;;;-10.32;89.67;95300.78;2042518;29;20055;-56
2022/12/13 03:47:38;;;;;;;38.60;17.70;;;;;;;-10.41;89.13;95298.09;2042467;29;20036;-56
2022/12/13 03:48:39;;;;;;;36.70;18.27;;;;;;;-10.45;89.11;95301.34;2042117;29;20055;-56
2022/12/13 03:49:40;;;;;;;38.72;19.35;;;;;;;-10.43;89.14;95299.72;2042423;29;20425;-55
2022/12/13 03:50:41;;;;;;;36.60;18.02;;;;;;;-10.44;89.12;95296.38;2042031;29;20046;-55
2022/12/13 03:51:43;;;;;;;33.03;16.55;;;;;;;-10.36;89.29;95289.00;2041783;29;20050;-63
2022/12/13 03:52:46;;;;;;;41.42;18.45;;;;;;;-10.39;89.29;95293.13;2041909;29;20408;-63
2022/12/13 03:53:47;;;;;;;40.40;18.00;;;;;;;-10.45;89.14;95301.34;2042408;29;20047;-63
2022/12/13 03:54:49;;;;;;;38.55;18.27;;;;;;;-10.45;89.04;95299.72;2042249;29;20047;-63
2022/12/13 03:55:50;;;;;;;38.67;18.95;;;;;;;-10.48;88.97;95299.63;2041899;29;20077;-63
2022/12/13 03:56:51;;;;;;;35.35;17.77;;;;;;;-10.51;89.38;95302.06;2042200;29;20055;-63
2022/12/13 03:57:52;;;;;;;41.45;19.45;;;;;;;-10.46;90.00;95298.00;2042380;29;20043;-63
2022/12/13 03:58:53;;;;;;;41.45;18.35;;;;;;;-10.46;89.82;95299.66;2041954;29;20051;-63
2022/12/13 03:59:54;;;;;;;40.60;19.23;;;;;;;-10.39;89.79;95309.03;2042183;29;20059;-63
2022/12/13 04:00:55;;;;;;;42.13;19.33;;;;;;;-10.44;89.58;95298.88;2042550;29;20039;-63
2022/12/13 04:01:57;;;;;;;40.50;18.77;;;;;;;-10.57;89.14;95283.53;2042089;29;20047;-63
2022/12/13 04:02:58;;;;;;;37.45;19.05;;;;;;;-10.51;89.07;95292.00;2041733;29;20503;-63
2022/12/13 04:03:59;;;;;;;37.38;18.70;;;;;;;-10.54;88.76;95296.13;2042007;29;20044;-63
2022/12/13 04:05:00;;;;;;;33.45;17.08;;;;;;;-10.60;88.61;95294.34;2042008;29;20056;-63
2022/12/13 04:06:01;;;;;;;35.42;17.17;;;;;;;-10.60;88.82;95299.34;2042330;29;20066;-63
2022/12/13 04:07:02;;;;;;;38.20;18.17;;;;;;;-10.65;88.52;95293.38;2041901;29;20048;-63
2022/12/13 04:08:04;;;;;;;37.13;17.88;;;;;;;-10.64;88.64;95302.59;2041979;29;20043;-63
2022/12/13 04:09:05;;;;;;;34.60;17.10;;;;;;;-10.69;88.68;95297.50;2042174;29;20054;-63
2022/12/13 04:10:06;;;;;;;37.15;17.75;;;;;;;-10.65;89.29;95295.88;2041846;29;20043;-63
2022/12/13 04:13:46;;;;;;;38.42;18.08;;;;;;;-10.68;89.29;95289.16;2041823;29;20432;-63
2022/12/13 04:14:48;;;;;;;34.40;16.33;;;;;;;-10.77;88.70;95290.59;2041640;29;20052;-63
2022/12/13 04:15:49;;;;;;;36.40;18.30;;;;;;;-10.77;88.76;95288.06;2041984;29;20055;-63
2022/12/13 04:16:51;;;;;;;37.55;17.88;;;;;;;-10.82;88.54;95288.00;2042122;29;20050;-58
2022/12/13 04:17:52;;;;;;;38.78;17.88;;;;;;;-10.80;89.77;95288.00;2041800;29;20051;-59
2022/12/13 04:18:53;;;;;;;39.33;19.08;;;;;;;-10.86;88.95;95282.84;2042101;29;20036;-58
2022/12/13 04:19:54;;;;;;;39.25;20.17;;;;;;;-10.93;89.76;95270.19;2042233;29;20059;-59
2022/12/13 04:20:56;;;;;;;39.20;18.33;;;;;;;-10.89;89.43;95284.47;2041827;29;20422;-59
2022/12/13 04:21:57;;;;;;;37.78;18.42;;;;;;;-10.90;88.58;95282.78;2041612;29;20066;-58
2022/12/13 04:22:58;;;;;;;43.67;18.52;;;;;;;-10.95;88.71;95283.50;2041825;29;20035;-59
2022/12/13 04:23:59;;;;;;;40.08;19.35;;;;;;;-10.96;87.89;95282.66;2041800;29;20048;-58
2022/12/13 04:25:00;;;;;;;35.17;17.17;;;;;;;-10.93;88.29;95280.22;2041979;29;20062;-59
2022/12/13 04:26:01;;;;;;;36.75;18.27;;;;;;;-10.93;88.70;95284.34;2042395;29;20456;-59
2022/12/13 04:27:02;;;;;;;38.33;18.90;;;;;;;-10.91;89.31;95280.22;2042255;29;20044;-58
2022/12/13 04:28:04;;;;;;;40.63;18.65;;;;;;;-11.01;88.60;95284.19;2042150;29;20044;-59
2022/12/13 04:29:05;;;;;;;37.28;17.77;;;;;;;-11.03;87.70;95278.28;2042010;29;20499;-59
2022/12/13 04:30:07;;;;;;;43.05;18.63;;;;;;;-11.08;87.89;95279.00;2042266;29;20043;-58
2022/12/13 04:31:08;;;;;;;38.00;18.23;;;;;;;-11.10;87.42;95278.94;2042197;29;20047;-58
2022/12/13 04:32:09;;;;;;;38.28;18.90;;;;;;;-11.11;87.19;95280.63;2042119;29;20047;-56
2022/12/13 04:33:10;;;;;;;40.00;18.05;;;;;;;-11.11;88.39;95278.13;2041767;29;20058;-56
2022/12/13 04:34:11;;;;;;;37.05;18.23;;;;;;;-11.09;88.73;95285.69;2042108;29;20051;-55
2022/12/13 04:35:12;;;;;;;39.78;18.15;;;;;;;-11.12;87.87;95278.06;2041897;29;20059;-56
2022/12/13 04:36:18;;;;;;;40.60;18.35;;;;;;;-11.11;88.11;95279.78;2042075;29;20403;-56
2022/12/13 04:37:19;;;;;;;36.85;17.10;;;;;;;-11.11;88.04;95279.78;2042521;29;20046;-59
2022/12/13 04:38:20;;;;;;;37.75;18.15;;;;;;;-11.07;88.19;95284.03;2041814;29;20051;-60
2022/12/13 04:39:21;;;;;;;40.20;17.92;;;;;;;-11.10;88.19;95281.47;2041473;29;20063;-59
2022/12/13 04:40:23;;;;;;;38.28;18.08;;;;;;;-11.15;87.81;95288.03;2042009;29;20060;-60
2022/12/13 04:41:24;;;;;;;37.35;18.10;;;;;;;-11.01;89.58;95288.34;2041396;29;20051;-59
2022/12/13 04:42:25;;;;;;;36.72;17.55;;;;;;;-10.95;89.89;95288.50;2042036;29;20048;-59
2022/12/13 04:43:26;;;;;;;39.90;18.35;;;;;;;-11.02;89.72;95281.66;2042283;29;20061;-59
2022/12/13 04:44:27;;;;;;;38.95;18.15;;;;;;;-10.98;89.90;95291.78;2042162;29;20046;-59
2022/12/13 04:45:28;;;;;;;35.50;17.33;;;;;;;-10.90;90.11;95294.50;2042193;29;20395;-60
2022/12/13 04:46:29;;;;;;;36.60;17.02;;;;;;;-10.89;89.78;95286.97;2041911;29;20047;-62
2022/12/13 04:47:31;;;;;;;34.08;16.92;;;;;;;-10.84;89.32;95289.59;2041603;29;20066;-63
2022/12/13 04:48:33;;;;;;;36.08;17.27;;;;;;;-10.92;88.63;95293.59;2041638;29;20055;-63
2022/12/13 04:49:34;;;;;;;36.42;17.30;;;;;;;-10.96;88.68;95287.66;2041028;29;20055;-63
2022/12/13 04:50:35;;;;;;;33.22;16.17;;;;;;;-10.87;89.12;95287.03;2040611;29;20058;-63
2022/12/13 04:51:36;;;;;;;37.05;17.55;;;;;;;-10.78;89.57;95292.25;2041633;29;20062;-56
2022/12/13 04:52:38;;;;;;;35.03;17.00;;;;;;;-10.68;89.63;95283.28;2041985;29;20056;-56
2022/12/13 04:53:39;;;;;;;34.90;17.50;;;;;;;-10.76;89.25;95269.72;2041325;29;20056;-56
2022/12/13 04:54:40;;;;;;;31.40;16.35;;;;;;;-10.81;89.10;95282.16;2042006;29;20407;-55
2022/12/13 04:55:41;;;;;;;32.45;15.77;;;;;;;-10.91;88.22;95271.03;2041395;29;20046;-56
2022/12/13 04:56:42;;;;;;;36.50;17.00;;;;;;;-10.89;89.23;95261.91;2041293;29;20136;-55